sensor_id;sensor_type;location;lat;lon;timestamp;temperature;humidity
76120;DHT22;64852;48.092;-1.640;2024-01-15T00:01:14;7.00;99.90
76120;DHT22;64852;48.092;-1.640;2024-01-15T00:03:39;6.30;99.90
76120;DHT22;64852;48.092;-1.640;2024-01-15T00:06:05;7.20;99.90
76120;DHT22;64852;48.092;-1.640;2024-01-15T00:08:30;5.50;99.90
76120;DHT22;64852;48.092;-1.640;2024-01-15T00:10:56;6.30;99.90
76120;DHT22;64852;48.092;-1.640;2024-01-15T00:13:21;6.80;99.90
76120;DHT22;64852;48.092;-1.640;2024-01-15T00:15:47;6.90;99.90
76120;DHT22;64852;48.092;-1.640;2024-01-15T00:18:12;6.20;99.90
76120;DHT22;64852;48.092;-1.640;2024-01-15T00:20:38;6.70;99.90
76120;DHT22;64852;48.092;-1.640;2024-01-15T00:23:03;6.70;99.90
76120;DHT22;64852;48.092;-1.640;2024-01-15T00:25:29;6.50;99.90
76120;DHT22;64852;48.092;-1.640;2024-01-15T00:27:54;6.40;99.90
76120;DHT22;64852;48.092;-1.640;2024-01-15T00:30:20;5.40;99.90
76120;DHT22;64852;48.092;-1.640;2024-01-15T00:32:45;5.20;99.90
76120;DHT22;64852;48.092;-1.640;2024-01-15T00:35:11;5.50;99.90
76120;DHT22;64852;48.092;-1.640;2024-01-15T00:37:36;6.30;99.90
76120;DHT22;64852;48.092;-1.640;2024-01-15T00:40:02;6.70;99.90
76120;DHT22;64852;48.092;-1.640;2024-01-15T00:42:28;5.40;99.90
76120;DHT22;64852;48.092;-1.640;2024-01-15T00:44:54;5.50;99.90
76120;DHT22;64852;48.092;-1.640;2024-01-15T00:47:19;5.40;99.90
76120;DHT22;64852;48.092;-1.640;2024-01-15T00:49:45;7.00;99.90
76120;DHT22;64852;48.092;-1.640;2024-01-15T00:52:10;6.80;99.90
76120;DHT22;64852;48.092;-1.640;2024-01-15T00:54:36;6.30;99.90
76120;DHT22;64852;48.092;-1.640;2024-01-15T00:57:01;6.00;99.90
76120;DHT22;64852;48.092;-1.640;2024-01-15T00:59:27;5.40;99.90
76120;DHT22;64852;48.092;-1.640;2024-01-15T01:01:52;6.80;99.90
76120;DHT22;64852;48.092;-1.640;2024-01-15T01:04:18;6.10;99.90
76120;DHT22;64852;48.092;-1.640;2024-01-15T01:06:43;5.50;99.90
76120;DHT22;64852;48.092;-1.640;2024-01-15T01:09:09;6.80;99.90
76120;DHT22;64852;48.092;-1.640;2024-01-15T01:11:34;5.30;99.90
76120;DHT22;64852;48.092;-1.640;2024-01-15T01:14:00;5.50;99.90
76120;DHT22;64852;48.092;-1.640;2024-01-15T01:16:27;6.40;99.90
76120;DHT22;64852;48.092;-1.640;2024-01-15T01:18:52;5.70;99.90
76120;DHT22;64852;48.092;-1.640;2024-01-15T01:21:18;6.50;99.90
76120;DHT22;64852;48.092;-1.640;2024-01-15T01:23:43;5.30;99.90
76120;DHT22;64852;48.092;-1.640;2024-01-15T01:26:09;5.30;99.90
76120;DHT22;64852;48.092;-1.640;2024-01-15T01:28:34;6.30;99.90
76120;DHT22;64852;48.092;-1.640;2024-01-15T01:31:00;5.70;99.90
76120;DHT22;64852;48.092;-1.640;2024-01-15T01:33:25;6.00;99.90
76120;DHT22;64852;48.092;-1.640;2024-01-15T01:35:51;7.00;99.90
76120;DHT22;64852;48.092;-1.640;2024-01-15T01:38:16;7.00;99.90
76120;DHT22;64852;48.092;-1.640;2024-01-15T01:40:42;5.40;99.90
76120;DHT22;64852;48.092;-1.640;2024-01-15T01:43:08;5.40;99.90
76120;DHT22;64852;48.092;-1.640;2024-01-15T01:45:34;6.80;99.90
76120;DHT22;64852;48.092;-1.640;2024-01-15T01:48:00;5.40;99.90
76120;DHT22;64852;48.092;-1.640;2024-01-15T01:50:25;6.30;99.90
76120;DHT22;64852;48.092;-1.640;2024-01-15T01:52:51;7.10;99.90
76120;DHT22;64852;48.092;-1.640;2024-01-15T01:55:17;6.80;99.90
76120;DHT22;64852;48.092;-1.640;2024-01-15T01:57:43;5.40;99.90
76120;DHT22;64852;48.092;-1.640;2024-01-15T02:00:09;5.50;99.90
76120;DHT22;64852;48.092;-1.640;2024-01-15T02:02:35;5.40;99.90
76120;DHT22;64852;48.092;-1.640;2024-01-15T02:05:01;6.60;99.90
76120;DHT22;64852;48.092;-1.640;2024-01-15T02:07:28;6.30;99.90
76120;DHT22;64852;48.092;-1.640;2024-01-15T02:09:54;5.40;99.90
76120;DHT22;64852;48.092;-1.640;2024-01-15T02:12:19;5.80;99.90
76120;DHT22;64852;48.092;-1.640;2024-01-15T02:14:45;6.60;99.90
76120;DHT22;64852;48.092;-1.640;2024-01-15T02:17:10;5.40;99.90
76120;DHT22;64852;48.092;-1.640;2024-01-15T02:19:36;5.60;99.90
76120;DHT22;64852;48.092;-1.640;2024-01-15T02:22:01;6.40;99.90
76120;DHT22;64852;48.092;-1.640;2024-01-15T02:24:27;6.20;99.90
76120;DHT22;64852;48.092;-1.640;2024-01-15T02:26:52;6.10;99.90
76120;DHT22;64852;48.092;-1.640;2024-01-15T02:29:18;6.70;99.90
76120;DHT22;64852;48.092;-1.640;2024-01-15T02:31:43;5.50;99.90
76120;DHT22;64852;48.092;-1.640;2024-01-15T02:34:09;6.90;99.90
76120;DHT22;64852;48.092;-1.640;2024-01-15T02:36:35;6.30;99.90
76120;DHT22;64852;48.092;-1.640;2024-01-15T02:39:00;5.30;99.90
76120;DHT22;64852;48.092;-1.640;2024-01-15T02:41:25;5.30;99.90
76120;DHT22;64852;48.092;-1.640;2024-01-15T02:43:51;6.60;99.90
76120;DHT22;64852;48.092;-1.640;2024-01-15T02:46:16;6.40;99.90
76120;DHT22;64852;48.092;-1.640;2024-01-15T02:48:42;6.40;99.90
76120;DHT22;64852;48.092;-1.640;2024-01-15T02:51:08;5.80;99.90
76120;DHT22;64852;48.092;-1.640;2024-01-15T02:53:33;5.20;99.90
76120;DHT22;64852;48.092;-1.640;2024-01-15T02:55:59;6.00;99.90
76120;DHT22;64852;48.092;-1.640;2024-01-15T02:58:24;6.30;99.90
76120;DHT22;64852;48.092;-1.640;2024-01-15T03:00:49;5.40;99.90
76120;DHT22;64852;48.092;-1.640;2024-01-15T03:03:15;6.00;99.90
76120;DHT22;64852;48.092;-1.640;2024-01-15T03:05:40;6.40;99.90
76120;DHT22;64852;48.092;-1.640;2024-01-15T03:08:06;5.40;99.90
76120;DHT22;64852;48.092;-1.640;2024-01-15T03:10:31;5.40;99.90
76120;DHT22;64852;48.092;-1.640;2024-01-15T03:12:57;5.50;99.90
76120;DHT22;64852;48.092;-1.640;2024-01-15T03:15:22;6.50;99.90
76120;DHT22;64852;48.092;-1.640;2024-01-15T03:17:48;5.70;99.90
76120;DHT22;64852;48.092;-1.640;2024-01-15T03:20:13;6.60;99.90
76120;DHT22;64852;48.092;-1.640;2024-01-15T03:22:39;5.40;99.90
76120;DHT22;64852;48.092;-1.640;2024-01-15T03:25:05;5.40;99.90
76120;DHT22;64852;48.092;-1.640;2024-01-15T03:27:31;5.30;99.90
76120;DHT22;64852;48.092;-1.640;2024-01-15T03:29:56;5.30;99.90
76120;DHT22;64852;48.092;-1.640;2024-01-15T03:32:22;6.60;99.90
76120;DHT22;64852;48.092;-1.640;2024-01-15T03:34:47;6.50;99.90
76120;DHT22;64852;48.092;-1.640;2024-01-15T03:37:13;6.90;99.90
76120;DHT22;64852;48.092;-1.640;2024-01-15T03:39:39;6.30;99.90
76120;DHT22;64852;48.092;-1.640;2024-01-15T03:42:04;5.40;99.90
76120;DHT22;64852;48.092;-1.640;2024-01-15T03:44:30;5.40;99.90
76120;DHT22;64852;48.092;-1.640;2024-01-15T03:46:55;5.80;99.90
76120;DHT22;64852;48.092;-1.640;2024-01-15T03:49:21;5.50;99.90
76120;DHT22;64852;48.092;-1.640;2024-01-15T03:51:46;5.30;99.90
76120;DHT22;64852;48.092;-1.640;2024-01-15T03:54:12;6.40;99.90
76120;DHT22;64852;48.092;-1.640;2024-01-15T03:56:37;6.20;99.90
76120;DHT22;64852;48.092;-1.640;2024-01-15T03:59:03;6.20;99.90
76120;DHT22;64852;48.092;-1.640;2024-01-15T04:01:28;5.40;99.90
76120;DHT22;64852;48.092;-1.640;2024-01-15T04:03:54;5.40;99.90
76120;DHT22;64852;48.092;-1.640;2024-01-15T04:06:20;5.50;99.90
76120;DHT22;64852;48.092;-1.640;2024-01-15T04:08:45;6.50;99.90
76120;DHT22;64852;48.092;-1.640;2024-01-15T04:11:11;6.10;99.90
76120;DHT22;64852;48.092;-1.640;2024-01-15T04:13:36;6.60;99.90
76120;DHT22;64852;48.092;-1.640;2024-01-15T04:16:02;5.50;99.90
76120;DHT22;64852;48.092;-1.640;2024-01-15T04:18:28;5.40;99.90
76120;DHT22;64852;48.092;-1.640;2024-01-15T04:20:54;5.30;99.90
76120;DHT22;64852;48.092;-1.640;2024-01-15T04:23:19;5.60;99.90
76120;DHT22;64852;48.092;-1.640;2024-01-15T04:25:45;6.10;99.90
76120;DHT22;64852;48.092;-1.640;2024-01-15T04:28:11;6.90;99.90
76120;DHT22;64852;48.092;-1.640;2024-01-15T04:30:37;5.50;99.90
76120;DHT22;64852;48.092;-1.640;2024-01-15T04:33:02;7.00;99.90
76120;DHT22;64852;48.092;-1.640;2024-01-15T04:35:28;5.50;99.90
76120;DHT22;64852;48.092;-1.640;2024-01-15T04:37:53;5.90;99.90
76120;DHT22;64852;48.092;-1.640;2024-01-15T04:40:19;6.50;99.90
76120;DHT22;64852;48.092;-1.640;2024-01-15T04:42:44;5.30;99.90
76120;DHT22;64852;48.092;-1.640;2024-01-15T04:45:11;6.80;99.90
76120;DHT22;64852;48.092;-1.640;2024-01-15T04:47:36;5.40;99.90
76120;DHT22;64852;48.092;-1.640;2024-01-15T04:50:03;5.70;99.90
76120;DHT22;64852;48.092;-1.640;2024-01-15T04:52:28;5.40;99.90
76120;DHT22;64852;48.092;-1.640;2024-01-15T04:54:54;6.70;99.90
76120;DHT22;64852;48.092;-1.640;2024-01-15T04:57:19;5.30;99.90
76120;DHT22;64852;48.092;-1.640;2024-01-15T04:59:45;6.00;99.90
76120;DHT22;64852;48.092;-1.640;2024-01-15T05:02:10;6.80;99.90
76120;DHT22;64852;48.092;-1.640;2024-01-15T05:04:36;6.60;99.90
76120;DHT22;64852;48.092;-1.640;2024-01-15T05:07:01;5.70;99.90
76120;DHT22;64852;48.092;-1.640;2024-01-15T05:09:27;5.30;99.90
76120;DHT22;64852;48.092;-1.640;2024-01-15T05:11:52;6.40;99.90
76120;DHT22;64852;48.092;-1.640;2024-01-15T05:14:18;6.40;99.90
76120;DHT22;64852;48.092;-1.640;2024-01-15T05:16:46;6.50;99.90
76120;DHT22;64852;48.092;-1.640;2024-01-15T05:19:12;5.30;99.90
76120;DHT22;64852;48.092;-1.640;2024-01-15T05:21:37;5.70;99.90
76120;DHT22;64852;48.092;-1.640;2024-01-15T05:24:03;5.90;99.90
76120;DHT22;64852;48.092;-1.640;2024-01-15T05:26:28;5.30;99.90
76120;DHT22;64852;48.092;-1.640;2024-01-15T05:28:54;6.50;99.90
76120;DHT22;64852;48.092;-1.640;2024-01-15T05:31:19;6.60;99.90
76120;DHT22;64852;48.092;-1.640;2024-01-15T05:33:45;6.80;99.90
76120;DHT22;64852;48.092;-1.640;2024-01-15T05:36:10;6.20;99.90
76120;DHT22;64852;48.092;-1.640;2024-01-15T05:38:36;5.50;99.90
76120;DHT22;64852;48.092;-1.640;2024-01-15T05:41:02;5.50;99.90
76120;DHT22;64852;48.092;-1.640;2024-01-15T05:43:27;5.50;99.90
76120;DHT22;64852;48.092;-1.640;2024-01-15T05:45:53;5.50;99.90
76120;DHT22;64852;48.092;-1.640;2024-01-15T05:48:18;5.50;99.90
76120;DHT22;64852;48.092;-1.640;2024-01-15T05:50:44;7.00;99.90
76120;DHT22;64852;48.092;-1.640;2024-01-15T05:53:09;6.20;99.90
76120;DHT22;64852;48.092;-1.640;2024-01-15T05:55:35;5.40;99.90
76120;DHT22;64852;48.092;-1.640;2024-01-15T05:58:01;5.40;99.90
76120;DHT22;64852;48.092;-1.640;2024-01-15T06:00:27;5.40;99.90
76120;DHT22;64852;48.092;-1.640;2024-01-15T06:02:52;6.30;99.90
76120;DHT22;64852;48.092;-1.640;2024-01-15T06:05:17;7.00;99.90
76120;DHT22;64852;48.092;-1.640;2024-01-15T06:07:43;7.00;99.90
76120;DHT22;64852;48.092;-1.640;2024-01-15T06:10:08;6.80;99.90
76120;DHT22;64852;48.092;-1.640;2024-01-15T06:12:34;5.40;99.90
76120;DHT22;64852;48.092;-1.640;2024-01-15T06:15:00;6.70;99.90
76120;DHT22;64852;48.092;-1.640;2024-01-15T06:17:25;6.60;99.90
76120;DHT22;64852;48.092;-1.640;2024-01-15T06:19:51;6.30;99.90
76120;DHT22;64852;48.092;-1.640;2024-01-15T06:22:16;5.40;99.90
76120;DHT22;64852;48.092;-1.640;2024-01-15T06:24:41;6.60;99.90
76120;DHT22;64852;48.092;-1.640;2024-01-15T06:27:07;5.50;99.90
76120;DHT22;64852;48.092;-1.640;2024-01-15T06:29:33;7.00;99.90
76120;DHT22;64852;48.092;-1.640;2024-01-15T06:31:59;6.70;99.90
76120;DHT22;64852;48.092;-1.640;2024-01-15T06:34:24;5.40;99.90
76120;DHT22;64852;48.092;-1.640;2024-01-15T06:36:50;6.70;99.90
76120;DHT22;64852;48.092;-1.640;2024-01-15T06:39:15;5.60;99.90
76120;DHT22;64852;48.092;-1.640;2024-01-15T06:41:41;6.00;99.90
76120;DHT22;64852;48.092;-1.640;2024-01-15T06:44:12;5.50;99.90
76120;DHT22;64852;48.092;-1.640;2024-01-15T06:46:44;6.50;99.90
76120;DHT22;64852;48.092;-1.640;2024-01-15T06:49:10;5.50;99.90
76120;DHT22;64852;48.092;-1.640;2024-01-15T06:51:36;6.80;99.90
76120;DHT22;64852;48.092;-1.640;2024-01-15T06:54:01;6.40;99.90
76120;DHT22;64852;48.092;-1.640;2024-01-15T06:56:27;5.50;99.90
76120;DHT22;64852;48.092;-1.640;2024-01-15T06:58:53;6.80;99.90
76120;DHT22;64852;48.092;-1.640;2024-01-15T07:01:18;5.40;99.90
76120;DHT22;64852;48.092;-1.640;2024-01-15T07:03:44;6.60;99.90
76120;DHT22;64852;48.092;-1.640;2024-01-15T07:06:10;5.70;99.90
76120;DHT22;64852;48.092;-1.640;2024-01-15T07:08:35;6.50;99.90
76120;DHT22;64852;48.092;-1.640;2024-01-15T07:11:03;6.50;99.90
76120;DHT22;64852;48.092;-1.640;2024-01-15T07:13:28;6.50;99.90
76120;DHT22;64852;48.092;-1.640;2024-01-15T07:15:54;6.90;99.90
76120;DHT22;64852;48.092;-1.640;2024-01-15T07:18:19;5.50;99.90
76120;DHT22;64852;48.092;-1.640;2024-01-15T07:20:45;5.50;99.90
76120;DHT22;64852;48.092;-1.640;2024-01-15T07:23:10;6.20;99.90
76120;DHT22;64852;48.092;-1.640;2024-01-15T07:25:36;6.70;99.90
76120;DHT22;64852;48.092;-1.640;2024-01-15T07:28:02;5.60;99.90
76120;DHT22;64852;48.092;-1.640;2024-01-15T07:30:29;5.60;99.90
76120;DHT22;64852;48.092;-1.640;2024-01-15T07:32:54;7.10;99.90
76120;DHT22;64852;48.092;-1.640;2024-01-15T07:35:20;6.70;99.90
76120;DHT22;64852;48.092;-1.640;2024-01-15T07:37:45;6.50;99.90
76120;DHT22;64852;48.092;-1.640;2024-01-15T07:40:11;6.50;99.90
76120;DHT22;64852;48.092;-1.640;2024-01-15T07:42:37;6.90;99.90
76120;DHT22;64852;48.092;-1.640;2024-01-15T07:45:04;6.60;99.90
76120;DHT22;64852;48.092;-1.640;2024-01-15T07:47:29;5.60;99.90
76120;DHT22;64852;48.092;-1.640;2024-01-15T07:49:55;6.70;99.90
76120;DHT22;64852;48.092;-1.640;2024-01-15T07:52:21;6.80;99.90
76120;DHT22;64852;48.092;-1.640;2024-01-15T07:54:47;6.70;99.90
76120;DHT22;64852;48.092;-1.640;2024-01-15T07:57:12;6.90;99.90
76120;DHT22;64852;48.092;-1.640;2024-01-15T07:59:38;5.60;99.90
76120;DHT22;64852;48.092;-1.640;2024-01-15T08:02:03;5.60;99.90
76120;DHT22;64852;48.092;-1.640;2024-01-15T08:04:29;5.80;99.90
76120;DHT22;64852;48.092;-1.640;2024-01-15T08:06:54;6.60;99.90
76120;DHT22;64852;48.092;-1.640;2024-01-15T08:09:20;5.70;99.90
76120;DHT22;64852;48.092;-1.640;2024-01-15T08:11:45;7.00;99.90
76120;DHT22;64852;48.092;-1.640;2024-01-15T08:14:11;6.80;99.90
76120;DHT22;64852;48.092;-1.640;2024-01-15T08:16:37;5.70;99.90
76120;DHT22;64852;48.092;-1.640;2024-01-15T08:19:03;6.20;99.90
76120;DHT22;64852;48.092;-1.640;2024-01-15T08:21:28;6.90;99.90
76120;DHT22;64852;48.092;-1.640;2024-01-15T08:23:57;7.00;99.90
76120;DHT22;64852;48.092;-1.640;2024-01-15T08:26:23;6.90;99.90
76120;DHT22;64852;48.092;-1.640;2024-01-15T08:28:49;6.50;99.90
76120;DHT22;64852;48.092;-1.640;2024-01-15T08:31:14;7.00;99.90
76120;DHT22;64852;48.092;-1.640;2024-01-15T08:33:40;5.80;99.90
76120;DHT22;64852;48.092;-1.640;2024-01-15T08:36:05;5.90;99.90
76120;DHT22;64852;48.092;-1.640;2024-01-15T08:38:31;5.90;99.90
76120;DHT22;64852;48.092;-1.640;2024-01-15T08:40:56;7.00;99.90
76120;DHT22;64852;48.092;-1.640;2024-01-15T08:43:24;6.10;99.90
76120;DHT22;64852;48.092;-1.640;2024-01-15T08:45:50;6.00;99.90
76120;DHT22;64852;48.092;-1.640;2024-01-15T08:48:16;6.40;99.90
76120;DHT22;64852;48.092;-1.640;2024-01-15T08:50:42;6.00;99.90
76120;DHT22;64852;48.092;-1.640;2024-01-15T08:53:07;6.00;99.90
76120;DHT22;64852;48.092;-1.640;2024-01-15T08:55:33;7.00;99.90
76120;DHT22;64852;48.092;-1.640;2024-01-15T08:57:58;6.70;99.90
76120;DHT22;64852;48.092;-1.640;2024-01-15T09:00:24;6.10;99.90
76120;DHT22;64852;48.092;-1.640;2024-01-15T09:02:49;7.40;99.90
76120;DHT22;64852;48.092;-1.640;2024-01-15T09:05:15;7.00;99.90
76120;DHT22;64852;48.092;-1.640;2024-01-15T09:07:40;6.00;99.90
76120;DHT22;64852;48.092;-1.640;2024-01-15T09:10:06;6.60;99.90
76120;DHT22;64852;48.092;-1.640;2024-01-15T09:12:31;6.10;99.90
76120;DHT22;64852;48.092;-1.640;2024-01-15T09:14:57;6.80;99.90
76120;DHT22;64852;48.092;-1.640;2024-01-15T09:17:22;6.10;99.90
76120;DHT22;64852;48.092;-1.640;2024-01-15T09:19:53;6.80;99.90
76120;DHT22;64852;48.092;-1.640;2024-01-15T09:22:18;6.60;99.90
76120;DHT22;64852;48.092;-1.640;2024-01-15T09:24:44;6.00;99.90
76120;DHT22;64852;48.092;-1.640;2024-01-15T09:27:10;7.50;99.90
76120;DHT22;64852;48.092;-1.640;2024-01-15T09:29:36;7.10;99.90
76120;DHT22;64852;48.092;-1.640;2024-01-15T09:32:07;7.20;99.90
76120;DHT22;64852;48.092;-1.640;2024-01-15T09:34:33;7.30;99.90
76120;DHT22;64852;48.092;-1.640;2024-01-15T09:36:59;7.50;99.90
76120;DHT22;64852;48.092;-1.640;2024-01-15T09:39:25;7.60;99.90
76120;DHT22;64852;48.092;-1.640;2024-01-15T09:41:51;6.50;99.90
76120;DHT22;64852;48.092;-1.640;2024-01-15T09:44:17;6.40;99.90
76120;DHT22;64852;48.092;-1.640;2024-01-15T09:46:43;6.10;99.90
76120;DHT22;64852;48.092;-1.640;2024-01-15T09:49:10;6.90;99.90
76120;DHT22;64852;48.092;-1.640;2024-01-15T09:51:35;7.50;99.90
76120;DHT22;64852;48.092;-1.640;2024-01-15T09:54:02;6.10;99.90
76120;DHT22;64852;48.092;-1.640;2024-01-15T09:56:27;7.30;99.90
76120;DHT22;64852;48.092;-1.640;2024-01-15T09:58:53;6.40;99.90
76120;DHT22;64852;48.092;-1.640;2024-01-15T10:01:21;6.70;99.90
76120;DHT22;64852;48.092;-1.640;2024-01-15T10:03:47;6.30;99.90
76120;DHT22;64852;48.092;-1.640;2024-01-15T10:06:16;6.50;99.90
76120;DHT22;64852;48.092;-1.640;2024-01-15T10:08:50;6.40;99.90
76120;DHT22;64852;48.092;-1.640;2024-01-15T10:11:16;6.60;99.90
76120;DHT22;64852;48.092;-1.640;2024-01-15T10:13:45;7.50;99.90
76120;DHT22;64852;48.092;-1.640;2024-01-15T10:16:10;6.80;99.90
76120;DHT22;64852;48.092;-1.640;2024-01-15T10:18:36;8.00;99.90
76120;DHT22;64852;48.092;-1.640;2024-01-15T10:21:02;7.90;99.90
76120;DHT22;64852;48.092;-1.640;2024-01-15T10:23:28;7.20;99.90
76120;DHT22;64852;48.092;-1.640;2024-01-15T10:25:56;7.30;99.90
76120;DHT22;64852;48.092;-1.640;2024-01-15T10:28:21;7.30;99.90
76120;DHT22;64852;48.092;-1.640;2024-01-15T10:30:47;8.30;99.90
76120;DHT22;64852;48.092;-1.640;2024-01-15T10:33:17;7.70;99.90
76120;DHT22;64852;48.092;-1.640;2024-01-15T10:35:46;8.70;99.90
76120;DHT22;64852;48.092;-1.640;2024-01-15T10:38:12;8.80;99.90
76120;DHT22;64852;48.092;-1.640;2024-01-15T10:40:37;8.80;99.90
76120;DHT22;64852;48.092;-1.640;2024-01-15T10:43:03;8.20;99.90
76120;DHT22;64852;48.092;-1.640;2024-01-15T10:45:29;8.30;99.90
76120;DHT22;64852;48.092;-1.640;2024-01-15T10:47:55;8.90;99.90
76120;DHT22;64852;48.092;-1.640;2024-01-15T10:50:24;8.60;99.90
76120;DHT22;64852;48.092;-1.640;2024-01-15T10:52:49;8.70;99.90
76120;DHT22;64852;48.092;-1.640;2024-01-15T10:55:16;8.80;99.90
76120;DHT22;64852;48.092;-1.640;2024-01-15T10:57:42;9.60;99.90
76120;DHT22;64852;48.092;-1.640;2024-01-15T11:00:10;8.70;99.90
76120;DHT22;64852;48.092;-1.640;2024-01-15T11:02:40;8.60;99.90
76120;DHT22;64852;48.092;-1.640;2024-01-15T11:05:06;9.30;99.90
76120;DHT22;64852;48.092;-1.640;2024-01-15T11:07:31;8.80;99.90
76120;DHT22;64852;48.092;-1.640;2024-01-15T11:09:57;9.40;99.90
76120;DHT22;64852;48.092;-1.640;2024-01-15T11:12:25;9.40;99.90
76120;DHT22;64852;48.092;-1.640;2024-01-15T11:14:50;8.70;99.90
76120;DHT22;64852;48.092;-1.640;2024-01-15T11:17:16;8.70;99.90
76120;DHT22;64852;48.092;-1.640;2024-01-15T11:19:46;8.70;99.90
76120;DHT22;64852;48.092;-1.640;2024-01-15T11:24:53;8.50;99.90
76120;DHT22;64852;48.092;-1.640;2024-01-15T11:27:18;8.80;99.90
76120;DHT22;64852;48.092;-1.640;2024-01-15T11:30:06;8.70;99.90
76120;DHT22;64852;48.092;-1.640;2024-01-15T11:32:34;8.50;99.90
76120;DHT22;64852;48.092;-1.640;2024-01-15T11:35:01;9.50;99.90
76120;DHT22;64852;48.092;-1.640;2024-01-15T11:40:17;8.50;99.90
76120;DHT22;64852;48.092;-1.640;2024-01-15T11:42:43;9.50;99.90
76120;DHT22;64852;48.092;-1.640;2024-01-15T11:45:09;8.60;99.90
76120;DHT22;64852;48.092;-1.640;2024-01-15T11:50:19;8.50;99.90
76120;DHT22;64852;48.092;-1.640;2024-01-15T11:53:00;9.60;99.90
76120;DHT22;64852;48.092;-1.640;2024-01-15T11:55:27;8.50;99.90
76120;DHT22;64852;48.092;-1.640;2024-01-15T11:57:54;8.60;99.90
76120;DHT22;64852;48.092;-1.640;2024-01-15T12:00:20;8.70;99.90
76120;DHT22;64852;48.092;-1.640;2024-01-15T12:02:46;9.50;99.90
76120;DHT22;64852;48.092;-1.640;2024-01-15T12:05:12;9.50;99.90
76120;DHT22;64852;48.092;-1.640;2024-01-15T12:07:42;9.40;99.90
76120;DHT22;64852;48.092;-1.640;2024-01-15T12:10:08;8.80;99.90
76120;DHT22;64852;48.092;-1.640;2024-01-15T12:15:11;9.20;99.90
76120;DHT22;64852;48.092;-1.640;2024-01-15T12:17:37;9.60;99.90
76120;DHT22;64852;48.092;-1.640;2024-01-15T12:20:04;9.70;99.90
76120;DHT22;64852;48.092;-1.640;2024-01-15T12:22:30;10.00;99.90
76120;DHT22;64852;48.092;-1.640;2024-01-15T12:24:55;10.20;99.90
76120;DHT22;64852;48.092;-1.640;2024-01-15T12:27:21;10.40;99.90
76120;DHT22;64852;48.092;-1.640;2024-01-15T12:29:46;10.70;99.90
76120;DHT22;64852;48.092;-1.640;2024-01-15T12:32:12;11.30;99.90
76120;DHT22;64852;48.092;-1.640;2024-01-15T12:34:38;12.00;99.90
76120;DHT22;64852;48.092;-1.640;2024-01-15T12:37:03;12.60;99.90
76120;DHT22;64852;48.092;-1.640;2024-01-15T12:39:29;13.30;99.90
76120;DHT22;64852;48.092;-1.640;2024-01-15T12:41:54;14.10;99.90
76120;DHT22;64852;48.092;-1.640;2024-01-15T12:44:20;14.40;99.90
76120;DHT22;64852;48.092;-1.640;2024-01-15T12:46:46;14.40;99.90
76120;DHT22;64852;48.092;-1.640;2024-01-15T12:49:12;14.00;99.90
76120;DHT22;64852;48.092;-1.640;2024-01-15T12:51:38;13.60;99.90
76120;DHT22;64852;48.092;-1.640;2024-01-15T12:54:04;13.50;99.90
76120;DHT22;64852;48.092;-1.640;2024-01-15T12:56:29;13.60;99.90
76120;DHT22;64852;48.092;-1.640;2024-01-15T12:58:55;13.70;99.90
76120;DHT22;64852;48.092;-1.640;2024-01-15T13:01:20;13.60;99.90
76120;DHT22;64852;48.092;-1.640;2024-01-15T13:03:47;13.70;99.90
76120;DHT22;64852;48.092;-1.640;2024-01-15T13:06:12;13.90;99.90
76120;DHT22;64852;48.092;-1.640;2024-01-15T13:08:38;13.90;99.90
76120;DHT22;64852;48.092;-1.640;2024-01-15T13:11:03;13.70;99.90
76120;DHT22;64852;48.092;-1.640;2024-01-15T13:13:29;13.70;99.90
76120;DHT22;64852;48.092;-1.640;2024-01-15T13:15:55;13.60;99.90
76120;DHT22;64852;48.092;-1.640;2024-01-15T13:18:21;13.40;99.90
76120;DHT22;64852;48.092;-1.640;2024-01-15T13:20:47;13.60;99.90
76120;DHT22;64852;48.092;-1.640;2024-01-15T13:23:12;13.40;99.90
76120;DHT22;64852;48.092;-1.640;2024-01-15T13:25:38;13.40;99.90
76120;DHT22;64852;48.092;-1.640;2024-01-15T13:28:06;13.20;99.90
76120;DHT22;64852;48.092;-1.640;2024-01-15T13:30:33;13.20;99.90
76120;DHT22;64852;48.092;-1.640;2024-01-15T13:32:58;13.40;99.90
76120;DHT22;64852;48.092;-1.640;2024-01-15T13:35:29;13.30;99.90
76120;DHT22;64852;48.092;-1.640;2024-01-15T13:37:54;13.10;99.90
76120;DHT22;64852;48.092;-1.640;2024-01-15T13:40:20;12.60;99.90
76120;DHT22;64852;48.092;-1.640;2024-01-15T13:42:45;12.10;99.90
76120;DHT22;64852;48.092;-1.640;2024-01-15T13:45:11;11.90;99.90
76120;DHT22;64852;48.092;-1.640;2024-01-15T13:47:40;11.60;99.90
76120;DHT22;64852;48.092;-1.640;2024-01-15T13:50:06;11.50;99.90
76120;DHT22;64852;48.092;-1.640;2024-01-15T13:52:32;11.00;99.90
76120;DHT22;64852;48.092;-1.640;2024-01-15T13:54:57;10.70;99.90
76120;DHT22;64852;48.092;-1.640;2024-01-15T13:57:23;10.50;99.90
76120;DHT22;64852;48.092;-1.640;2024-01-15T13:59:48;10.60;99.90
76120;DHT22;64852;48.092;-1.640;2024-01-15T14:02:14;10.50;99.90
76120;DHT22;64852;48.092;-1.640;2024-01-15T14:04:40;10.70;99.90
76120;DHT22;64852;48.092;-1.640;2024-01-15T14:07:06;10.90;99.90
76120;DHT22;64852;48.092;-1.640;2024-01-15T14:09:32;10.80;99.90
76120;DHT22;64852;48.092;-1.640;2024-01-15T14:11:57;11.10;99.90
76120;DHT22;64852;48.092;-1.640;2024-01-15T14:14:23;10.20;99.90
76120;DHT22;64852;48.092;-1.640;2024-01-15T14:16:49;9.90;99.90
76120;DHT22;64852;48.092;-1.640;2024-01-15T14:19:14;9.90;99.90
76120;DHT22;64852;48.092;-1.640;2024-01-15T14:21:40;9.90;99.90
76120;DHT22;64852;48.092;-1.640;2024-01-15T14:24:06;9.80;99.90
76120;DHT22;64852;48.092;-1.640;2024-01-15T14:26:31;9.60;99.90
76120;DHT22;64852;48.092;-1.640;2024-01-15T14:28:57;9.90;99.90
76120;DHT22;64852;48.092;-1.640;2024-01-15T14:31:24;9.50;99.90
76120;DHT22;64852;48.092;-1.640;2024-01-15T14:33:51;10.00;99.90
76120;DHT22;64852;48.092;-1.640;2024-01-15T14:36:17;10.30;99.90
76120;DHT22;64852;48.092;-1.640;2024-01-15T14:38:42;10.00;99.90
76120;DHT22;64852;48.092;-1.640;2024-01-15T14:41:08;10.10;99.90
76120;DHT22;64852;48.092;-1.640;2024-01-15T14:43:33;9.60;99.90
76120;DHT22;64852;48.092;-1.640;2024-01-15T14:45:59;9.60;99.90
76120;DHT22;64852;48.092;-1.640;2024-01-15T14:48:25;9.40;99.90
76120;DHT22;64852;48.092;-1.640;2024-01-15T14:50:50;10.00;99.90
76120;DHT22;64852;48.092;-1.640;2024-01-15T14:53:16;8.90;99.90
76120;DHT22;64852;48.092;-1.640;2024-01-15T14:55:42;8.90;99.90
76120;DHT22;64852;48.092;-1.640;2024-01-15T14:58:08;9.10;99.90
76120;DHT22;64852;48.092;-1.640;2024-01-15T15:00:33;8.70;99.90
76120;DHT22;64852;48.092;-1.640;2024-01-15T15:02:59;9.20;99.90
76120;DHT22;64852;48.092;-1.640;2024-01-15T15:05:24;8.80;99.90
76120;DHT22;64852;48.092;-1.640;2024-01-15T15:07:51;8.90;99.90
76120;DHT22;64852;48.092;-1.640;2024-01-15T15:10:16;8.80;99.90
76120;DHT22;64852;48.092;-1.640;2024-01-15T15:12:42;9.00;99.90
76120;DHT22;64852;48.092;-1.640;2024-01-15T15:15:07;9.70;99.90
76120;DHT22;64852;48.092;-1.640;2024-01-15T15:17:33;9.00;99.90
76120;DHT22;64852;48.092;-1.640;2024-01-15T15:20:00;9.70;99.90
76120;DHT22;64852;48.092;-1.640;2024-01-15T15:22:27;9.10;99.90
76120;DHT22;64852;48.092;-1.640;2024-01-15T15:24:52;9.00;99.90
76120;DHT22;64852;48.092;-1.640;2024-01-15T15:27:18;9.80;99.90
76120;DHT22;64852;48.092;-1.640;2024-01-15T15:29:44;9.10;99.90
76120;DHT22;64852;48.092;-1.640;2024-01-15T15:32:09;9.80;99.90